Time;durP1;ratioP1;P1;durP2;ratioP2;P2;SDS_P1;SDS_P2;PMS_P1;PMS_P2;Temp;Humidity;BMP_temperature;BMP_pressure;BME280_temperature;BME280_humidity;BME280_pressure;Samples;Min_cycle;Max_cycle;Signal;HPM_P1;HPM_P2
2021/06/24 00:01:43;;;;;;;6.60;5.32;;;12.90;99.90;;;;;;5014907;28;20379;-71
2021/06/24 00:04:09;;;;;;;6.15;4.78;;;12.90;99.90;;;;;;5014684;28;20127;-71
2021/06/24 00:06:35;;;;;;;8.38;4.28;;;12.90;99.90;;;;;;5015123;28;20042;-71
2021/06/24 00:09:00;;;;;;;6.18;4.18;;;12.90;99.90;;;;;;5014217;28;20038;-71
2021/06/24 00:11:26;;;;;;;8.60;5.03;;;12.90;99.90;;;;;;5014479;28;20049;-71
2021/06/24 00:13:52;;;;;;;7.78;5.20;;;12.90;99.90;;;;;;5014510;28;20117;-71
2021/06/24 00:16:18;;;;;;;10.63;6.00;;;12.90;99.90;;;;;;5014229;28;20034;-71
2021/06/24 00:18:44;;;;;;;11.02;6.68;;;12.90;99.90;;;;;;5013255;28;20100;-71
2021/06/24 00:21:10;;;;;;;8.93;6.43;;;12.90;99.90;;;;;;5014598;28;20449;-71
2021/06/24 00:23:35;;;;;;;11.18;5.90;;;12.90;99.90;;;;;;5014308;28;20069;-71
2021/06/24 00:26:01;;;;;;;6.35;5.22;;;13.00;99.90;;;;;;5013668;28;20099;-71
2021/06/24 00:28:28;;;;;;;12.80;5.60;;;13.00;99.90;;;;;;5014066;28;20390;-71
2021/06/24 00:30:55;;;;;;;8.68;6.20;;;13.10;99.90;;;;;;5014027;28;20038;-71
2021/06/24 00:33:21;;;;;;;10.65;5.45;;;13.00;99.90;;;;;;5014033;28;20038;-71
2021/06/24 00:35:47;;;;;;;8.98;5.05;;;13.00;99.90;;;;;;5014398;28;20041;-71
2021/06/24 00:38:14;;;;;;;7.55;4.97;;;12.90;99.90;;;;;;5014020;28;20037;-71
2021/06/24 00:40:40;;;;;;;9.57;5.20;;;12.90;99.90;;;;;;5013672;28;20046;-71
2021/06/24 00:43:09;;;;;;;6.55;4.95;;;13.00;99.90;;;;;;5013982;28;20041;-71
2021/06/24 00:45:35;;;;;;;9.80;5.53;;;13.00;99.90;;;;;;5013840;28;20049;-71
2021/06/24 00:48:01;;;;;;;7.82;5.53;;;13.00;99.90;;;;;;5014171;28;20038;-71
2021/06/24 00:50:28;;;;;;;8.75;5.63;;;12.90;99.90;;;;;;5014044;28;20386;-71
2021/06/24 00:52:54;;;;;;;10.40;5.60;;;12.90;99.90;;;;;;5014108;28;20175;-71
2021/06/24 00:55:39;;;;;;;10.98;5.90;;;13.00;99.90;;;;;;5012722;28;20128;-71
2021/06/24 00:58:13;;;;;;;9.27;5.53;;;12.90;99.90;;;;;;5014194;28;20126;-71
2021/06/24 01:00:41;;;;;;;10.43;6.28;;;12.90;99.90;;;;;;5013547;28;20033;-71
2021/06/24 01:03:07;;;;;;;9.18;6.55;;;12.90;99.90;;;;;;5014028;28;20038;-71
2021/06/24 01:05:35;;;;;;;10.15;6.40;;;12.90;99.90;;;;;;5013715;28;20121;-71
2021/06/24 01:08:01;;;;;;;7.18;5.80;;;12.90;99.90;;;;;;5013535;28;20038;-71
2021/06/24 01:10:27;;;;;;;7.53;5.68;;;12.90;99.90;;;;;;5013300;28;20038;-71
2021/06/24 01:12:53;;;;;;;6.78;5.20;;;13.00;99.90;;;;;;5013645;28;20161;-71
2021/06/24 01:15:19;;;;;;;8.18;5.07;;;13.00;99.90;;;;;;5013394;28;20551;-71
2021/06/24 01:17:44;;;;;;;6.07;5.47;;;13.00;99.90;;;;;;5013708;28;20116;-71
2021/06/24 01:20:11;;;;;;;9.55;5.70;;;13.00;99.90;;;;;;5013249;28;20038;-71
2021/06/24 01:22:36;;;;;;;6.82;5.05;;;13.10;99.90;;;;;;5013792;28;20044;-71
2021/06/24 01:25:03;;;;;;;7.78;5.57;;;13.10;99.90;;;;;;5013563;28;20046;-71
2021/06/24 01:27:29;;;;;;;10.18;5.35;;;13.10;99.90;;;;;;5013323;28;20048;-71
2021/06/24 01:29:55;;;;;;;7.53;5.82;;;13.20;99.90;;;;;;5013100;28;20100;-71
2021/06/24 01:32:21;;;;;;;8.73;5.10;;;13.20;99.90;;;;;;5013584;28;20038;-71
2021/06/24 01:34:47;;;;;;;7.13;5.15;;;13.20;99.90;;;;;;5013432;28;20471;-71
2021/06/24 01:37:13;;;;;;;6.95;4.88;;;13.30;99.90;;;;;;5013599;28;20084;-71
2021/06/24 01:39:39;;;;;;;7.43;5.80;;;13.30;99.90;;;;;;5016546;28;20034;-71
2021/06/24 01:42:04;;;;;;;5.28;4.53;;;13.30;99.90;;;;;;5017646;28;20041;-71
2021/06/24 01:44:35;;;;;;;10.25;5.22;;;13.30;99.90;;;;;;5017774;28;20052;-71
2021/06/24 01:47:02;;;;;;;6.90;4.78;;;13.30;99.90;;;;;;5017724;28;20077;-71
2021/06/24 01:49:29;;;;;;;9.07;5.15;;;13.30;99.90;;;;;;5016817;28;20478;-71
2021/06/24 01:51:54;;;;;;;6.63;5.75;;;13.30;99.90;;;;;;5016984;28;20038;-71
2021/06/24 01:54:21;;;;;;;7.68;5.40;;;13.30;99.90;;;;;;5017361;28;20068;-72
2021/06/24 01:56:48;;;;;;;7.18;5.38;;;13.30;99.90;;;;;;5017235;28;20041;-73
2021/06/24 01:59:14;;;;;;;7.40;5.57;;;13.30;99.90;;;;;;5016543;28;20121;-73
2021/06/24 02:01:40;;;;;;;5.88;5.13;;;13.30;99.90;;;;;;5016853;28;20045;-73
2021/06/24 02:04:06;;;;;;;8.23;5.30;;;13.30;99.90;;;;;;5017030;28;20423;-73
2021/06/24 02:06:32;;;;;;;7.32;5.13;;;13.30;99.90;;;;;;5016983;28;20052;-73
2021/06/24 02:08:58;;;;;;;6.38;4.90;;;13.30;99.90;;;;;;5016516;28;20038;-73
2021/06/24 02:11:24;;;;;;;6.65;5.35;;;13.30;99.90;;;;;;5016751;28;20491;-73
2021/06/24 02:13:50;;;;;;;7.82;5.45;;;13.30;99.90;;;;;;5016840;28;20490;-73
2021/06/24 02:16:16;;;;;;;7.85;5.03;;;13.30;99.90;;;;;;5015422;28;20042;-73
2021/06/24 02:18:41;;;;;;;6.05;5.10;;;13.40;99.90;;;;;;5016202;28;20536;-73
2021/06/24 02:21:07;;;;;;;7.68;5.63;;;13.40;99.90;;;;;;5016448;28;20038;-73
2021/06/24 02:23:33;;;;;;;8.13;5.20;;;13.40;99.90;;;;;;5016546;28;20060;-73
2021/06/24 02:26:00;;;;;;;6.10;4.45;;;13.40;99.90;;;;;;5016426;28;20042;-73
2021/06/24 02:28:25;;;;;;;11.45;5.10;;;13.40;99.90;;;;;;5016235;28;20112;-73
2021/06/24 02:30:52;;;;;;;6.28;4.72;;;13.40;99.90;;;;;;5016056;28;20042;-73
2021/06/24 02:33:19;;;;;;;6.55;4.05;;;13.50;99.90;;;;;;5016453;28;20033;-73
2021/06/24 02:35:55;;;;;;;6.55;4.72;;;13.50;99.90;;;;;;5016238;28;20042;-73
2021/06/24 02:38:21;;;;;;;8.13;4.40;;;13.50;99.90;;;;;;5016902;28;20042;-71
2021/06/24 02:40:47;;;;;;;6.88;5.07;;;13.50;99.90;;;;;;5015857;28;20038;-72
2021/06/24 02:43:13;;;;;;;7.55;4.55;;;13.50;99.90;;;;;;5016075;28;20038;-72
2021/06/24 02:45:41;;;;;;;5.35;4.70;;;13.50;99.90;;;;;;5016272;28;20370;-72
2021/06/24 02:48:07;;;;;;;4.93;4.00;;;13.50;99.90;;;;;;5016012;28;20037;-72
2021/06/24 02:50:33;;;;;;;7.07;4.72;;;13.50;99.90;;;;;;5013962;28;20395;-72
2021/06/24 02:52:59;;;;;;;7.88;4.38;;;13.50;99.90;;;;;;5015936;28;20038;-72
2021/06/24 02:55:30;;;;;;;7.38;4.07;;;13.50;99.90;;;;;;5015982;28;20048;-72
2021/06/24 02:57:57;;;;;;;6.05;4.35;;;13.50;99.90;;;;;;5016157;28;20477;-72
2021/06/24 03:00:24;;;;;;;5.07;3.40;;;13.50;99.90;;;;;;5015592;28;20045;-72
2021/06/24 03:02:49;;;;;;;7.07;3.58;;;13.40;99.90;;;;;;5016015;28;20092;-72
2021/06/24 03:05:15;;;;;;;9.15;3.88;;;13.50;99.90;;;;;;5015886;28;20482;-72
2021/06/24 03:07:41;;;;;;;6.78;3.72;;;13.50;99.90;;;;;;5015904;28;20049;-72
2021/06/24 03:10:08;;;;;;;4.93;3.47;;;13.50;99.90;;;;;;5015514;28;20038;-72
2021/06/24 03:12:35;;;;;;;7.68;3.58;;;13.50;99.90;;;;;;5015551;28;20073;-72
2021/06/24 03:15:01;;;;;;;7.60;3.50;;;13.50;99.90;;;;;;5015382;28;20069;-72
2021/06/24 03:17:28;;;;;;;8.75;4.13;;;13.60;99.90;;;;;;5015784;28;20112;-72
2021/06/24 03:19:54;;;;;;;9.57;3.60;;;13.60;99.90;;;;;;5015102;28;20038;-72
2021/06/24 03:22:20;;;;;;;6.40;3.15;;;13.60;99.90;;;;;;5015507;28;20034;-72
2021/06/24 03:24:45;;;;;;;3.97;3.20;;;13.60;99.90;;;;;;5014084;28;20041;-72
2021/06/24 03:27:11;;;;;;;6.22;3.28;;;13.60;99.90;;;;;;5015257;28;20041;-72
2021/06/24 03:29:37;;;;;;;6.53;3.58;;;13.70;99.90;;;;;;5014968;28;20077;-72
2021/06/24 03:32:03;;;;;;;4.13;3.55;;;13.60;99.90;;;;;;5015046;28;20414;-72
2021/06/24 03:34:30;;;;;;;4.18;3.42;;;13.60;99.90;;;;;;5015076;28;20041;-72
2021/06/24 03:36:55;;;;;;;5.82;3.65;;;13.60;99.90;;;;;;5015595;28;20044;-72
2021/06/24 03:39:21;;;;;;;7.15;3.45;;;13.60;99.90;;;;;;5015168;28;20544;-72
2021/06/24 03:41:47;;;;;;;5.32;3.38;;;13.60;99.90;;;;;;5015142;28;20485;-72
2021/06/24 03:44:12;;;;;;;4.78;3.92;;;13.60;99.90;;;;;;5015206;28;20041;-72
2021/06/24 03:46:38;;;;;;;5.03;3.40;;;13.60;99.90;;;;;;5015025;28;20084;-72
2021/06/24 03:49:05;;;;;;;6.90;4.32;;;13.50;99.90;;;;;;5014591;28;20084;-72
2021/06/24 03:51:30;;;;;;;7.45;4.30;;;13.50;99.90;;;;;;5014676;28;20509;-72
2021/06/24 03:53:57;;;;;;;6.85;4.53;;;13.50;99.90;;;;;;5014913;28;20042;-72
2021/06/24 03:56:23;;;;;;;5.57;3.60;;;13.50;99.90;;;;;;5014731;28;20068;-72
2021/06/24 03:58:48;;;;;;;6.53;4.32;;;13.50;99.90;;;;;;5014641;28;20042;-72
2021/06/24 04:01:14;;;;;;;8.65;4.10;;;13.50;99.90;;;;;;5012643;28;20038;-72
2021/06/24 04:03:40;;;;;;;5.32;3.97;;;13.50;99.90;;;;;;5014703;28;20496;-72
2021/06/24 04:06:09;;;;;;;7.15;4.20;;;13.40;99.90;;;;;;5014704;28;20038;-72
2021/06/24 04:08:35;;;;;;;7.28;4.18;;;13.30;99.90;;;;;;5014511;28;20045;-72
2021/06/24 04:11:01;;;;;;;4.65;3.92;;;13.30;99.90;;;;;;5014529;28;20053;-72
2021/06/24 04:13:30;;;;;;;5.82;4.25;;;13.30;99.90;;;;;;5014468;28;20061;-72
2021/06/24 04:15:55;;;;;;;7.85;4.65;;;13.40;99.90;;;;;;5014489;28;20145;-73
2021/06/24 04:18:21;;;;;;;8.63;4.65;;;13.30;99.90;;;;;;5014499;28;20069;-72
2021/06/24 04:20:47;;;;;;;5.25;4.35;;;13.30;99.90;;;;;;5014091;28;20034;-73
2021/06/24 04:23:12;;;;;;;7.13;4.07;;;13.30;99.90;;;;;;5014183;28;20041;-73
2021/06/24 04:25:38;;;;;;;6.65;3.92;;;13.30;99.90;;;;;;5014211;28;20107;-73
2021/06/24 04:28:04;;;;;;;6.35;4.22;;;13.40;99.90;;;;;;5012986;28;20145;-73
2021/06/24 04:30:30;;;;;;;9.43;4.03;;;13.50;99.90;;;;;;5013785;28;20065;-73
2021/06/24 04:32:59;;;;;;;9.00;5.15;;;13.60;99.90;;;;;;5013968;28;20042;-73
2021/06/24 04:35:25;;;;;;;8.88;4.70;;;13.60;99.90;;;;;;5014203;28;20042;-73
2021/06/24 04:37:51;;;;;;;7.15;4.82;;;13.60;99.90;;;;;;5013970;28;20069;-73
2021/06/24 04:40:16;;;;;;;8.60;5.15;;;13.60;99.90;;;;;;5013764;28;20077;-73
2021/06/24 04:42:42;;;;;;;6.63;4.25;;;13.60;99.90;;;;;;5013908;28;20387;-73
2021/06/24 04:45:10;;;;;;;6.47;4.45;;;13.60;99.90;;;;;;5014432;28;20386;-73
2021/06/24 04:47:36;;;;;;;7.32;4.53;;;13.60;99.90;;;;;;5012716;28;20038;-73
2021/06/24 04:50:02;;;;;;;6.72;4.95;;;13.60;99.90;;;;;;5013554;28;20038;-73
2021/06/24 04:52:28;;;;;;;10.60;5.07;;;13.60;99.90;;;;;;5013856;28;20037;-73
2021/06/24 04:54:54;;;;;;;4.68;4.28;;;13.60;99.90;;;;;;5013858;28;20050;-73
2021/06/24 04:57:19;;;;;;;8.13;4.93;;;13.70;99.90;;;;;;5014009;28;20042;-73
2021/06/24 04:59:45;;;;;;;8.13;4.78;;;13.60;99.90;;;;;;5013760;28;20057;-73
2021/06/24 05:02:11;;;;;;;7.72;4.55;;;13.70;99.90;;;;;;5013660;28;20041;-73
2021/06/24 05:04:36;;;;;;;6.25;4.72;;;13.80;99.90;;;;;;5012424;28;20041;-73
2021/06/24 05:07:08;;;;;;;8.38;4.40;;;14.00;99.90;;;;;;5013740;28;20080;-73
2021/06/24 05:09:38;;;;;;;6.25;4.65;;;14.00;99.90;;;;;;5013644;28;20497;-73
2021/06/24 05:12:06;;;;;;;6.75;6.00;;;14.10;99.90;;;;;;5013318;28;20045;-73
2021/06/24 05:14:38;;;;;;;12.30;4.70;;;14.10;99.90;;;;;;5013705;28;20088;-73
2021/06/24 05:17:05;;;;;;;6.25;4.57;;;14.10;99.90;;;;;;5013836;28;20084;-73
2021/06/24 05:19:33;;;;;;;6.72;5.32;;;14.20;99.90;;;;;;5013334;28;20042;-73
2021/06/24 05:21:59;;;;;;;8.02;5.50;;;14.20;99.90;;;;;;5013467;28;20037;-73
2021/06/24 05:24:29;;;;;;;5.68;5.05;;;14.30;99.90;;;;;;5013546;28;20042;-73
2021/06/24 05:26:57;;;;;;;8.15;4.68;;;14.30;99.90;;;;;;5013676;28;20117;-73
2021/06/24 05:29:25;;;;;;;5.95;5.35;;;14.30;99.90;;;;;;5014473;28;20038;-73
2021/06/24 05:31:51;;;;;;;12.52;5.90;;;14.20;99.90;;;;;;5013101;28;20108;-73
2021/06/24 05:34:17;;;;;;;6.00;5.40;;;14.30;99.90;;;;;;5013415;28;20053;-73
2021/06/24 05:36:43;;;;;;;6.75;5.88;;;14.30;99.90;;;;;;5012556;28;20037;-71
2021/06/24 05:39:09;;;;;;;8.45;5.32;;;14.30;99.80;;;;;;5013092;28;20042;-69
2021/06/24 05:41:35;;;;;;;6.57;5.70;;;14.30;99.70;;;;;;5013527;28;20044;-71
2021/06/24 05:44:02;;;;;;;7.03;4.75;;;14.30;99.90;;;;;;5014497;28;20065;-70
2021/06/24 05:46:28;;;;;;;10.27;5.15;;;14.40;99.90;;;;;;5014280;28;20048;-70
2021/06/24 05:48:54;;;;;;;7.45;5.53;;;14.80;99.10;;;;;;5013090;28;20045;-70
2021/06/24 05:51:23;;;;;;;7.88;5.18;;;15.00;98.80;;;;;;5014168;28;20493;-70
2021/06/24 05:53:50;;;;;;;7.03;5.18;;;15.20;98.30;;;;;;5014464;28;20038;-70
2021/06/24 05:56:17;;;;;;;7.18;5.07;;;15.20;98.10;;;;;;5013342;28;20037;-70
2021/06/24 05:58:42;;;;;;;4.78;4.18;;;15.30;97.80;;;;;;5013112;28;20053;-71
2021/06/24 06:01:08;;;;;;;6.03;3.95;;;15.40;97.60;;;;;;5013141;28;20401;-70
2021/06/24 06:03:35;;;;;;;5.35;3.50;;;15.50;96.70;;;;;;5013001;28;20520;-70
2021/06/24 06:06:01;;;;;;;6.60;4.78;;;15.60;96.40;;;;;;5013313;28;20153;-70
2021/06/24 06:08:27;;;;;;;6.13;4.38;;;16.10;95.90;;;;;;5012969;28;20034;-71
2021/06/24 06:10:53;;;;;;;5.93;4.05;;;16.20;95.70;;;;;;5013233;28;20049;-70
2021/06/24 06:13:19;;;;;;;6.15;3.38;;;16.20;95.10;;;;;;5013332;28;20065;-70
2021/06/24 06:15:49;;;;;;;6.88;3.72;;;16.20;94.90;;;;;;5013141;28;20498;-70
2021/06/24 06:18:18;;;;;;;5.00;2.63;;;16.80;94.20;;;;;;5012971;28;20042;-70
2021/06/24 06:20:45;;;;;;;3.20;2.50;;;16.90;93.20;;;;;;5012739;28;20064;-70
2021/06/24 06:23:13;;;;;;;4.35;2.35;;;17.10;94.40;;;;;;5013098;28;20117;-70
2021/06/24 06:25:39;;;;;;;3.80;2.10;;;17.10;93.80;;;;;;5014838;28;20045;-70
2021/06/24 06:28:05;;;;;;;3.63;2.13;;;16.90;93.10;;;;;;5016248;28;20481;-71
2021/06/24 06:30:33;;;;;;;4.50;2.70;;;16.60;93.20;;;;;;5016215;28;20057;-71
2021/06/24 06:32:58;;;;;;;3.75;2.40;;;16.30;93.10;;;;;;5016170;28;20030;-71
2021/06/24 06:35:25;;;;;;;7.45;2.17;;;16.40;93.10;;;;;;5016469;28;20042;-70
2021/06/24 06:37:50;;;;;;;5.53;2.50;;;16.60;93.20;;;;;;5016336;28;20100;-70
2021/06/24 06:40:16;;;;;;;4.18;2.70;;;16.80;92.50;;;;;;5016120;28;20107;-70
2021/06/24 06:42:43;;;;;;;6.10;2.67;;;16.80;92.40;;;;;;5016653;28;20034;-70
2021/06/24 06:45:10;;;;;;;3.03;2.53;;;17.10;92.30;;;;;;5016134;28;20536;-69
2021/06/24 06:47:36;;;;;;;2.92;2.53;;;17.00;92.40;;;;;;5015906;28;20513;-70
2021/06/24 06:50:03;;;;;;;3.20;2.55;;;17.20;93.00;;;;;;5015561;28;20478;-71
2021/06/24 06:52:29;;;;;;;5.57;2.90;;;17.20;92.90;;;;;;5016026;28;20038;-70
2021/06/24 06:54:54;;;;;;;5.78;3.20;;;17.40;92.50;;;;;;5015825;28;20084;-70
2021/06/24 06:57:20;;;;;;;4.93;2.85;;;17.60;92.60;;;;;;5016228;28;20113;-70
2021/06/24 06:59:46;;;;;;;7.78;3.10;;;17.50;92.80;;;;;;5015702;28;20038;-70
2021/06/24 07:02:12;;;;;;;4.53;3.10;;;17.20;92.90;;;;;;5015821;28;20046;-70
2021/06/24 07:04:38;;;;;;;3.63;3.13;;;16.90;93.50;;;;;;5015643;28;20560;-69
2021/06/24 07:07:04;;;;;;;3.35;2.97;;;16.80;93.70;;;;;;5015693;28;20081;-69
2021/06/24 07:09:30;;;;;;;4.28;2.80;;;16.50;93.90;;;;;;5015318;28;20046;-70
2021/06/24 07:11:56;;;;;;;5.95;2.95;;;16.50;94.10;;;;;;5015189;28;20096;-70
2021/06/24 07:14:21;;;;;;;5.00;2.83;;;16.40;94.20;;;;;;5015271;28;20425;-69
2021/06/24 07:16:48;;;;;;;3.45;2.28;;;16.50;94.70;;;;;;5015357;28;20048;-70
2021/06/24 07:19:14;;;;;;;4.40;2.63;;;16.50;94.50;;;;;;5015192;28;20505;-70
2021/06/24 07:21:40;;;;;;;4.43;2.60;;;16.50;94.30;;;;;;5015413;28;20037;-70
2021/06/24 07:24:06;;;;;;;3.55;2.28;;;16.40;94.30;;;;;;5015351;28;20038;-69
2021/06/24 07:26:32;;;;;;;5.00;2.63;;;16.50;94.80;;;;;;5015216;28;20041;-70
2021/06/24 07:28:58;;;;;;;3.35;2.13;;;16.60;94.30;;;;;;5015554;28;20038;-71
2021/06/24 07:31:24;;;;;;;4.30;2.80;;;16.20;94.00;;;;;;5014357;28;20045;-70
2021/06/24 07:33:51;;;;;;;3.05;2.65;;;16.30;94.60;;;;;;5015297;28;20481;-69
2021/06/24 07:36:20;;;;;;;2.38;1.88;;;16.00;94.50;;;;;;5014936;28;20540;-70
2021/06/24 07:38:46;;;;;;;4.75;2.67;;;16.10;94.60;;;;;;5014694;28;20049;-70
2021/06/24 07:41:14;;;;;;;4.13;2.28;;;16.30;94.40;;;;;;5015405;28;20443;-70
2021/06/24 07:43:42;;;;;;;3.25;1.98;;;17.00;94.80;;;;;;5015413;28;20364;-70
2021/06/24 07:46:08;;;;;;;2.25;1.70;;;17.60;92.90;;;;;;5014263;28;20092;-70
2021/06/24 07:48:34;;;;;;;4.85;2.03;;;18.30;92.60;;;;;;5014557;28;20117;-70
2021/06/24 07:50:59;;;;;;;3.15;1.70;;;18.80;91.30;;;;;;5014754;28;20045;-70
2021/06/24 07:53:25;;;;;;;2.72;1.30;;;19.20;90.10;;;;;;5014705;28;20044;-70
2021/06/24 07:55:51;;;;;;;4.43;1.45;;;19.50;87.20;;;;;;5014922;28;20109;-71
2021/06/24 07:58:17;;;;;;;4.32;1.60;;;18.50;88.00;;;;;;5014698;28;20033;-71
2021/06/24 08:00:43;;;;;;;2.70;1.70;;;18.50;87.60;;;;;;5014492;28;20059;-71
2021/06/24 08:03:08;;;;;;;1.75;1.58;;;18.30;88.40;;;;;;5014751;28;20089;-71
2021/06/24 08:05:34;;;;;;;3.08;2.00;;;18.00;89.10;;;;;;5014553;28;20038;-71
2021/06/24 08:08:00;;;;;;;5.40;1.60;;;18.00;89.80;;;;;;5014940;28;20042;-69
2021/06/24 08:10:26;;;;;;;2.65;1.70;;;17.70;91.20;;;;;;5014172;28;20060;-70
2021/06/24 08:12:52;;;;;;;5.05;2.83;;;17.40;91.00;;;;;;5014658;28;20044;-70
2021/06/24 08:15:26;;;;;;;5.63;1.88;;;17.40;91.10;;;;;;5014647;28;20050;-70
2021/06/24 08:17:51;;;;;;;4.25;2.25;;;17.30;90.90;;;;;;5014880;28;20121;-71
2021/06/24 08:20:17;;;;;;;5.40;2.00;;;17.20;91.40;;;;;;5013992;28;20160;-71
2021/06/24 08:22:43;;;;;;;6.32;2.08;;;17.00;92.10;;;;;;5014626;28;20033;-70
2021/06/24 08:25:09;;;;;;;4.47;2.72;;;17.00;93.20;;;;;;5014336;28;20123;-70
2021/06/24 08:27:36;;;;;;;6.38;2.72;;;17.00;92.60;;;;;;5014143;28;20041;-70
2021/06/24 08:30:08;;;;;;;3.17;2.22;;;17.00;92.70;;;;;;5013915;28;20038;-71
2021/06/24 08:32:37;;;;;;;4.75;2.80;;;16.90;93.60;;;;;;5012760;28;20042;-71
2021/06/24 08:35:04;;;;;;;5.35;2.85;;;16.90;92.90;;;;;;5014109;28;20038;-72
2021/06/24 08:37:30;;;;;;;3.92;2.70;;;16.60;93.20;;;;;;5013994;28;20057;-71
2021/06/24 08:39:56;;;;;;;3.25;2.78;;;16.40;93.50;;;;;;5013675;28;20038;-71
2021/06/24 08:42:22;;;;;;;3.88;3.00;;;16.60;93.30;;;;;;5013916;28;20038;-71
2021/06/24 08:44:48;;;;;;;4.68;3.78;;;16.30;93.20;;;;;;5014023;28;20038;-71
2021/06/24 08:47:15;;;;;;;5.75;3.10;;;16.30;94.50;;;;;;5013581;28;20038;-71
2021/06/24 08:49:41;;;;;;;7.88;4.30;;;16.40;94.90;;;;;;5013779;28;20121;-71
2021/06/24 08:52:09;;;;;;;4.25;3.03;;;16.50;95.30;;;;;;5013805;28;20119;-71
2021/06/24 08:54:35;;;;;;;4.97;3.70;;;16.50;94.40;;;;;;5013800;28;20065;-72
2021/06/24 08:57:01;;;;;;;7.32;3.63;;;16.70;93.20;;;;;;5013622;28;20044;-71
2021/06/24 08:59:27;;;;;;;8.98;3.20;;;16.70;93.00;;;;;;5013505;28;20116;-72
2021/06/24 09:01:55;;;;;;;6.43;3.40;;;16.60;93.50;;;;;;5013667;28;20509;-72
2021/06/24 09:04:30;;;;;;;4.60;3.35;;;16.70;93.60;;;;;;5013517;28;20053;-72
2021/06/24 09:07:09;;;;;;;5.35;3.47;;;16.70;94.30;;;;;;5013867;28;20486;-72
2021/06/24 09:09:37;;;;;;;4.45;4.05;;;16.60;94.40;;;;;;5013314;28;20494;-71
2021/06/24 09:12:11;;;;;;;7.25;3.67;;;16.50;94.10;;;;;;5013910;28;20076;-71
2021/06/24 09:14:45;;;;;;;4.50;3.60;;;16.30;93.60;;;;;;5012302;28;20483;-72
2021/06/24 09:17:31;;;;;;;5.22;3.22;;;16.30;94.10;;;;;;5013426;28;20037;-72
2021/06/24 09:19:57;;;;;;;4.90;2.85;;;16.40;94.60;;;;;;5013124;28;20116;-72
2021/06/24 09:22:25;;;;;;;3.83;3.53;;;16.40;94.70;;;;;;5014083;28;20065;-72
2021/06/24 09:24:51;;;;;;;7.07;5.20;;;16.60;95.10;;;;;;5012481;28;20041;-71
2021/06/24 09:27:17;;;;;;;10.40;5.72;;;16.70;94.90;;;;;;5013989;28;20046;-71
2021/06/24 09:29:43;;;;;;;21.90;8.05;;;16.80;95.60;;;;;;5013519;28;20073;-71
2021/06/24 09:32:08;;;;;;;6.85;3.70;;;17.00;95.30;;;;;;5013355;28;20037;-71
2021/06/24 09:34:34;;;;;;;7.53;3.47;;;17.00;94.20;;;;;;5013791;28;20042;-71
2021/06/24 09:37:04;;;;;;;3.63;3.33;;;16.90;93.90;;;;;;5014024;28;20414;-71
2021/06/24 09:39:44;;;;;;;3.15;2.85;;;16.60;93.90;;;;;;5013822;28;20049;-71
2021/06/24 09:42:12;;;;;;;4.63;2.63;;;16.80;94.60;;;;;;5013954;28;20398;-71
2021/06/24 09:44:43;;;;;;;15.35;3.90;;;16.90;95.10;;;;;;5012351;28;20053;-71
2021/06/24 09:47:26;;;;;;;4.43;3.60;;;16.80;94.70;;;;;;5013488;28;20091;-71
2021/06/24 09:50:10;;;;;;;4.68;4.07;;;16.90;94.10;;;;;;5014090;28;20037;-71
2021/06/24 09:52:36;;;;;;;4.65;4.25;;;16.90;93.30;;;;;;5013824;28;20065;-71
2021/06/24 09:55:11;;;;;;;5.25;4.35;;;16.90;92.90;;;;;;5013213;28;20486;-71
2021/06/24 09:57:37;;;;;;;9.43;4.22;;;17.20;92.30;;;;;;5013490;28;20042;-71
2021/06/24 10:00:33;;;;;;;4.65;3.80;;;17.00;93.00;;;;;;5015807;28;20041;-71
2021/06/24 10:03:07;;;;;;;4.28;3.58;;;17.00;94.10;;;;;;5017076;28;20524;-71
2021/06/24 10:05:34;;;;;;;4.38;3.70;;;17.00;93.30;;;;;;5017048;28;20073;-71
2021/06/24 10:08:00;;;;;;;5.05;3.35;;;17.10;93.30;;;;;;5017036;28;20045;-70
2021/06/24 10:10:25;;;;;;;4.60;3.60;;;17.10;92.90;;;;;;5016870;28;20046;-71
2021/06/24 10:12:51;;;;;;;4.22;3.63;;;17.20;92.70;;;;;;5016707;28;20041;-70
2021/06/24 10:15:17;;;;;;;8.13;3.40;;;17.20;93.10;;;;;;5016943;28;20037;-70
2021/06/24 10:17:44;;;;;;;4.38;3.97;;;17.00;93.60;;;;;;5015438;28;20041;-70
2021/06/24 10:20:11;;;;;;;4.95;4.38;;;17.10;93.20;;;;;;5016383;28;20109;-70
2021/06/24 10:22:39;;;;;;;3.65;3.35;;;16.80;92.70;;;;;;5016882;28;20092;-71
2021/06/24 10:25:11;;;;;;;4.32;3.85;;;16.90;93.40;;;;;;5017079;28;20104;-72
2021/06/24 10:27:39;;;;;;;5.80;3.25;;;17.10;93.00;;;;;;5016732;28;20104;-71
2021/06/24 10:30:09;;;;;;;5.10;3.42;;;16.80;92.90;;;;;;5016171;28;20096;-71
2021/06/24 10:32:36;;;;;;;5.13;3.55;;;16.70;93.20;;;;;;5016242;28;20478;-72
2021/06/24 10:35:04;;;;;;;7.03;3.08;;;16.80;93.80;;;;;;5016211;28;20089;-72
2021/06/24 10:37:32;;;;;;;4.95;3.40;;;16.90;93.80;;;;;;5016362;28;20077;-72
2021/06/24 10:40:00;;;;;;;4.28;3.33;;;16.80;93.70;;;;;;5015855;28;20045;-70
2021/06/24 10:42:33;;;;;;;5.15;2.67;;;17.10;95.00;;;;;;5016366;28;20049;-69
2021/06/24 10:45:04;;;;;;;3.45;3.08;;;16.90;94.10;;;;;;5016554;28;20144;-70
2021/06/24 10:47:39;;;;;;;3.17;2.85;;;17.00;93.70;;;;;;5016434;28;20104;-70
2021/06/24 10:50:32;;;;;;;4.72;3.60;;;17.20;93.20;;;;;;5014933;28;20050;-71
2021/06/24 10:52:58;;;;;;;;;;;17.20;92.60;;;;;;5016083;28;20470;-71
2021/06/24 10:55:46;;;;;;;4.43;2.78;;;17.10;92.40;;;;;;5015973;28;19929;-70
2021/06/24 10:58:18;;;;;;;4.90;3.08;;;17.20;92.50;;;;;;5016027;28;20033;-70
2021/06/24 11:00:51;;;;;;;4.38;2.45;;;17.20;92.30;;;;;;5015842;28;20478;-70
2021/06/24 11:03:32;;;;;;;3.22;2.92;;;17.10;92.80;;;;;;5015964;28;20040;-71
2021/06/24 11:06:18;;;;;;;4.03;3.03;;;17.30;92.20;;;;;;5016226;28;20038;-70
2021/06/24 11:08:44;;;;;;;4.03;2.70;;;17.30;92.70;;;;;;5014607;28;20038;-71
2021/06/24 11:11:12;;;;;;;3.65;2.88;;;17.10;93.10;;;;;;5015007;28;20128;-70
2021/06/24 11:13:42;;;;;;;4.13;3.58;;;17.10;93.10;;;;;;5016211;28;20045;-70
2021/06/24 11:16:17;;;;;;;4.05;3.00;;;17.30;92.50;;;;;;5015487;28;20046;-70
2021/06/24 11:18:51;;;;;;;3.85;2.85;;;17.50;91.50;;;;;;5015693;28;20033;-70
2021/06/24 11:21:29;;;;;;;7.40;3.05;;;17.40;92.80;;;;;;5015247;28;20033;-69
2021/06/24 11:24:00;;;;;;;4.07;2.90;;;17.40;92.90;;;;;;5015525;28;20490;-70
2021/06/24 11:26:26;;;;;;;4.03;2.90;;;17.20;92.90;;;;;;5015282;28;20483;-70
2021/06/24 11:28:55;;;;;;;4.15;3.08;;;17.10;92.60;;;;;;5014859;28;20041;-71
2021/06/24 11:34:26;;;;;;;4.55;3.00;;;17.10;93.10;;;;;;5012160;28;20054;-71
2021/06/24 11:36:54;;;;;;;4.93;3.40;;;17.20;94.60;;;;;;5028996;28;20493;-70
2021/06/24 11:39:27;;;;;;;4.30;3.53;;;17.20;94.10;;;;;;5034389;28;20041;-71
2021/06/24 11:41:59;;;;;;;6.03;4.10;;;17.20;93.80;;;;;;5034992;28;20045;-71
2021/06/24 11:44:27;;;;;;;7.80;3.53;;;17.20;93.50;;;;;;5034790;28;20436;-71
2021/06/24 11:46:55;;;;;;;5.05;3.40;;;17.40;94.10;;;;;;5034541;28;20045;-72
2021/06/24 11:49:34;;;;;;;4.78;3.92;;;17.30;94.40;;;;;;5033545;28;20405;-72
2021/06/24 12:00:59;;;;;;;6.50;5.38;;;17.40;94.30;;;;;;5014354;28;20087;-71
2021/06/24 12:03:25;;;;;;;6.03;5.35;;;17.30;93.60;;;;;;5015322;28;20457;-71
2021/06/24 12:05:54;;;;;;;6.55;5.18;;;17.30;93.40;;;;;;5014471;28;20099;-71
2021/06/24 12:08:24;;;;;;;7.22;5.35;;;17.30;93.80;;;;;;5014451;28;20046;-71
2021/06/24 12:11:09;;;;;;;4.93;4.50;;;17.10;93.70;;;;;;5014116;28;20124;-71
2021/06/24 12:13:39;;;;;;;5.18;4.55;;;17.20;94.20;;;;;;5013239;28;20038;-71
2021/06/24 12:16:05;;;;;;;6.35;4.60;;;17.40;94.10;;;;;;5014449;28;20037;-71
2021/06/24 12:18:35;;;;;;;4.68;4.28;;;17.50;94.60;;;;;;5013986;28;20103;-71
2021/06/24 12:21:03;;;;;;;5.03;4.53;;;17.60;94.40;;;;;;5013915;28;20041;-71
2021/06/24 12:23:28;;;;;;;4.43;4.03;;;17.60;93.80;;;;;;5012631;28;20542;-71
2021/06/24 12:25:58;;;;;;;5.00;3.95;;;17.70;93.80;;;;;;5014469;28;20069;-71
2021/06/24 12:28:24;;;;;;;5.25;4.70;;;17.70;92.40;;;;;;5014830;28;20091;-72
2021/06/24 12:30:51;;;;;;;4.95;4.45;;;17.50;92.30;;;;;;5013851;28;20038;-71
2021/06/24 12:33:17;;;;;;;5.00;3.60;;;17.80;92.70;;;;;;5014050;28;20042;-71
2021/06/24 12:35:47;;;;;;;4.20;3.47;;;17.90;92.80;;;;;;5014015;28;20470;-71
2021/06/24 12:38:19;;;;;;;7.38;3.50;;;17.90;92.50;;;;;;5013492;28;20085;-70
2021/06/24 12:40:49;;;;;;;7.78;4.20;;;17.80;92.30;;;;;;5014049;28;20041;-71
2021/06/24 12:43:27;;;;;;;4.68;3.70;;;18.00;91.60;;;;;;5014020;28;20046;-71
2021/06/24 12:45:58;;;;;;;5.72;3.47;;;17.90;91.60;;;;;;5014005;28;20043;-71
2021/06/24 12:48:33;;;;;;;5.15;3.45;;;17.90;91.70;;;;;;5014521;28;20034;-72
2021/06/24 12:51:01;;;;;;;5.15;4.38;;;18.00;92.50;;;;;;5014132;28;20040;-71
2021/06/24 12:53:40;;;;;;;4.35;3.88;;;17.80;92.50;;;;;;5014355;28;20113;-70
2021/06/24 12:56:19;;;;;;;4.22;3.63;;;17.90;93.40;;;;;;5013856;28;20126;-70
2021/06/24 12:58:45;;;;;;;5.50;4.53;;;17.80;93.10;;;;;;5013574;28;20045;-70
2021/06/24 13:01:14;;;;;;;4.95;3.70;;;17.50;92.70;;;;;;5013541;28;20050;-70